Time;durP1;ratioP1;P1;durP2;ratioP2;P2;SDS_P1;SDS_P2;PMS_P1;PMS_P2;Temp;Humidity;BMP_temperature;BMP_pressure;BME280_temperature;BME280_humidity;BME280_pressure;Samples;Min_cycle;Max_cycle;Signal;HPM_P1;HPM_P2
2022/09/26 00:00:09;;;;;;;18.90;10.18;;;;;;;11.60;80.23;100006.92;1688205;84;21051;-65
2022/09/26 00:02:43;;;;;;;17.27;10.00;;;;;;;11.59;80.21;100011.57;1677343;85;21508;-64
2022/09/26 00:05:13;;;;;;;17.12;10.20;;;;;;;11.59;80.14;99999.75;1700889;84;21452;-64
2022/09/26 00:07:43;;;;;;;17.80;9.88;;;;;;;11.58;80.11;100004.40;1665975;84;21107;-64
2022/09/26 00:10:16;;;;;;;18.70;10.03;;;;;;;11.58;80.10;100015.38;1691151;84;21489;-64
2022/09/26 00:12:45;;;;;;;14.15;8.63;;;;;;;11.58;79.98;100009.05;1664578;85;21098;-65
2022/09/26 00:15:15;;;;;;;17.48;9.45;;;;;;;11.58;79.95;100005.77;1676231;85;21047;-64
2022/09/26 00:17:46;;;;;;;17.37;9.88;;;;;;;11.58;80.12;100005.77;1683929;85;21559;-64
2022/09/26 00:20:16;;;;;;;20.08;10.68;;;;;;;11.58;80.14;100013.16;1660187;85;21039;-64
2022/09/26 00:22:45;;;;;;;17.45;10.60;;;;;;;11.54;80.20;100010.00;1665849;85;21450;-63
2022/09/26 00:25:16;;;;;;;18.07;11.25;;;;;;;11.49;80.38;100007.58;1666585;85;21124;-64
2022/09/26 00:27:45;;;;;;;17.73;10.05;;;;;;;11.49;80.55;100017.19;1672721;85;21470;-64
2022/09/26 00:30:15;;;;;;;17.75;10.38;;;;;;;11.49;80.64;100009.80;1668709;86;21017;-64
2022/09/26 00:32:44;;;;;;;21.00;10.18;;;;;;;11.47;80.95;100006.42;1653050;84;21074;-65
2022/09/26 00:35:15;;;;;;;16.25;10.00;;;;;;;11.49;81.22;99999.35;1674553;85;21035;-66
2022/09/26 00:37:44;;;;;;;17.10;9.88;;;;;;;11.48;81.39;100010.86;1666659;85;21538;-64
2022/09/26 00:40:15;;;;;;;17.25;9.90;;;;;;;11.47;81.62;100004.20;1688101;85;21003;-64
2022/09/26 00:42:44;;;;;;;15.10;9.53;;;;;;;11.49;81.76;100000.20;1666310;86;21503;-64
2022/09/26 00:45:14;;;;;;;15.50;9.68;;;;;;;11.52;81.81;99998.39;1683724;84;21018;-65
2022/09/26 00:48:03;;;;;;;17.20;10.13;;;;;;;11.52;82.07;100005.25;1668381;85;21066;-64
2022/09/26 00:50:35;;;;;;;15.88;10.00;;;;;;;11.50;82.24;99997.77;1668853;85;21071;-63
2022/09/26 00:53:15;;;;;;;16.12;8.98;;;;;;;11.51;82.53;100005.47;1674122;85;21019;-63
2022/09/26 00:55:52;;;;;;;17.82;10.30;;;;;;;11.49;82.74;100002.09;1661125;85;21063;-64
2022/09/26 00:58:37;;;;;;;20.05;10.82;;;;;;;11.49;83.13;99996.61;1685640;83;21070;-64
2022/09/26 01:01:06;;;;;;;19.15;11.53;;;;;;;11.49;83.41;99998.83;1683211;85;21035;-64
2022/09/26 01:03:37;;;;;;;22.22;12.15;;;;;;;11.50;83.69;99994.18;1674656;86;21115;-63
2022/09/26 01:06:07;;;;;;;19.73;11.28;;;;;;;11.50;83.95;100003.25;1689363;85;21074;-65
2022/09/26 01:08:58;;;;;;;18.45;10.60;;;;;;;11.50;84.09;99997.77;1675614;84;21055;-64
2022/09/26 01:11:30;;;;;;;19.02;10.45;;;;;;;11.50;84.18;99999.14;1689305;85;21058;-65
2022/09/26 01:13:59;;;;;;;17.95;10.55;;;;;;;11.51;84.30;99990.38;1687785;84;21114;-64
2022/09/26 01:16:29;;;;;;;15.58;10.10;;;;;;;11.50;84.55;99989.53;1675962;85;21003;-65
2022/09/26 01:18:58;;;;;;;17.20;10.13;;;;;;;11.49;84.72;99989.22;1677547;85;21058;-63
2022/09/26 01:22:05;;;;;;;15.68;10.48;;;;;;;11.50;84.77;99982.67;1689399;85;21185;-63
2022/09/26 01:24:59;;;;;;;15.72;10.58;;;;;;;11.47;84.81;99980.36;1663119;85;21071;-65
2022/09/26 01:27:42;;;;;;;17.70;10.58;;;;;;;11.41;84.88;99983.96;1669719;84;21557;-64
2022/09/26 01:30:20;;;;;;;15.70;9.38;;;;;;;11.41;85.18;99979.84;1637877;85;21039;-64
2022/09/26 01:33:29;;;;;;;16.42;10.68;;;;;;;11.40;85.39;99979.53;1673059;85;21054;-63
2022/09/26 01:36:22;;;;;;;15.60;9.83;;;;;;;11.39;85.51;99985.55;1672429;85;21011;-64
2022/09/26 01:39:17;;;;;;;13.80;8.80;;;;;;;11.42;85.63;99989.77;1670266;84;21076;-63
2022/09/26 01:42:07;;;;;;;12.10;8.53;;;;;;;11.42;85.36;99989.23;1663984;84;21016;-63
2022/09/26 01:45:07;;;;;;;12.73;8.18;;;;;;;11.46;84.74;99990.17;1680601;85;21078;-64
2022/09/26 01:47:48;;;;;;;11.20;8.13;;;;;;;11.47;84.30;99984.48;1659054;86;21099;-64
2022/09/26 01:50:47;;;;;;;10.55;6.53;;;;;;;11.48;83.80;99994.92;1667347;85;21079;-64
2022/09/26 01:53:25;;;;;;;11.10;7.97;;;;;;;11.46;83.26;99991.02;1710627;82;21079;-64
2022/09/26 01:56:08;;;;;;;12.20;7.20;;;;;;;11.44;82.59;99983.53;1651021;85;21063;-64
2022/09/26 01:58:51;;;;;;;13.32;7.22;;;;;;;11.43;82.50;99984.59;1695089;82;21055;-64
2022/09/26 02:01:22;;;;;;;12.15;7.17;;;;;;;11.46;82.35;99989.65;1669067;84;21957;-65
2022/09/26 02:03:55;;;;;;;10.18;7.65;;;;;;;11.48;82.29;99978.46;1660070;85;21039;-65
2022/09/26 02:06:30;;;;;;;11.78;7.87;;;;;;;11.48;82.14;99973.81;1653884;85;21043;-64
2022/09/26 02:09:23;;;;;;;10.13;7.15;;;;;;;11.47;82.57;99969.39;1685931;82;21063;-64
2022/09/26 02:11:52;;;;;;;11.18;7.58;;;;;;;11.48;82.89;99966.95;1708526;82;21039;-64
2022/09/26 02:14:27;;;;;;;11.03;7.85;;;;;;;11.50;83.11;99970.33;1677537;84;21041;-64
2022/09/26 02:17:00;;;;;;;10.53;6.83;;;;;;;11.51;83.40;99972.55;1681773;84;21078;-65
2022/09/26 02:19:33;;;;;;;10.15;6.97;;;;;;;11.51;83.33;99976.66;1716713;82;21104;-65
2022/09/26 02:22:03;;;;;;;12.45;7.75;;;;;;;11.52;83.39;99977.81;1702210;82;21071;-65
2022/09/26 02:24:32;;;;;;;11.03;7.53;;;;;;;11.52;83.48;99983.30;1660240;84;21096;-65
2022/09/26 02:27:03;;;;;;;9.68;6.70;;;;;;;11.50;83.53;99978.56;1738770;82;21542;-65
2022/09/26 02:29:33;;;;;;;9.53;6.90;;;;;;;11.50;83.62;99975.81;1707117;83;21545;-65
2022/09/26 02:32:14;;;;;;;9.03;6.67;;;;;;;11.48;83.77;99982.05;1682131;84;21477;-64
2022/09/26 02:34:46;;;;;;;10.82;6.75;;;;;;;11.48;83.93;99973.81;1733917;82;21024;-65
2022/09/26 02:37:16;;;;;;;9.13;6.92;;;;;;;11.47;83.93;99974.03;1681687;84;21056;-63
2022/09/26 02:39:45;;;;;;;10.40;6.28;;;;;;;11.44;83.91;99967.08;1714459;82;21075;-65
2022/09/26 02:42:35;;;;;;;10.68;6.60;;;;;;;11.46;83.89;99973.72;1737066;82;21504;-65
2022/09/26 02:45:34;;;;;;;9.90;6.08;;;;;;;11.44;83.74;99961.06;1714277;82;21039;-65
2022/09/26 02:48:11;;;;;;;12.28;6.72;;;;;;;11.41;83.72;99960.64;1646874;82;21526;-65
2022/09/26 02:50:58;;;;;;;10.65;6.53;;;;;;;11.38;84.06;99959.17;1719370;82;21118;-65
2022/09/26 02:53:47;;;;;;;12.55;6.40;;;;;;;11.38;84.09;99963.81;1717493;83;21087;-65
2022/09/26 02:56:24;;;;;;;8.78;5.92;;;;;;;11.36;84.22;99958.55;1667052;85;21429;-66
2022/09/26 02:59:33;;;;;;;9.73;5.87;;;;;;;11.34;84.48;99966.67;1656303;86;21044;-63
2022/09/26 03:02:14;;;;;;;9.40;6.28;;;;;;;11.33;84.67;99956.75;1651011;86;21040;-64
2022/09/26 03:05:08;;;;;;;9.08;6.62;;;;;;;11.33;85.02;99954.02;1653053;86;21501;-64
2022/09/26 03:07:59;;;;;;;10.20;6.10;;;;;;;11.30;85.25;99954.44;1629641;85;21066;-65
2022/09/26 03:10:29;;;;;;;8.70;6.25;;;;;;;11.26;85.55;99952.66;1663274;85;21552;-66
2022/09/26 03:13:10;;;;;;;8.68;5.58;;;;;;;11.24;86.06;99942.42;1661895;85;21997;-64
2022/09/26 03:15:40;;;;;;;10.25;6.20;;;;;;;11.24;86.39;99937.47;1670144;85;21034;-64
2022/09/26 03:18:13;;;;;;;10.95;6.50;;;;;;;11.21;86.76;99932.41;1642266;86;21117;-64
2022/09/26 03:20:43;;;;;;;11.75;6.55;;;;;;;11.20;87.07;99932.09;1668050;85;21506;-65
2022/09/26 03:23:13;;;;;;;10.93;6.35;;;;;;;11.19;87.39;99929.88;1678447;85;21487;-65
2022/09/26 03:25:43;;;;;;;9.08;6.65;;;;;;;11.20;87.61;99926.61;1646746;85;21059;-65
2022/09/26 03:28:13;;;;;;;9.38;7.03;;;;;;;11.20;87.93;99921.12;1643546;86;21492;-65
2022/09/26 03:30:42;;;;;;;10.23;6.78;;;;;;;11.21;88.25;99922.81;1656513;86;21004;-65
2022/09/26 03:33:31;;;;;;;10.35;7.00;;;;;;;11.23;88.53;99922.07;1631523;87;21108;-64
2022/09/26 03:36:06;;;;;;;10.65;6.45;;;;;;;11.24;88.76;99918.27;1683902;85;21130;-65
2022/09/26 03:38:35;;;;;;;9.90;6.87;;;;;;;11.25;88.93;99929.55;1673522;85;21112;-65
2022/09/26 03:41:09;;;;;;;11.28;7.22;;;;;;;11.22;89.11;99933.56;1668942;85;21134;-65
2022/09/26 03:43:58;;;;;;;12.75;7.67;;;;;;;11.22;89.42;99932.72;1668159;85;21032;-65
2022/09/26 03:46:29;;;;;;;9.50;7.08;;;;;;;11.23;89.61;99942.11;1644575;86;21008;-65
2022/09/26 03:48:58;;;;;;;10.13;6.72;;;;;;;11.22;89.82;99948.65;1673636;85;21049;-65
2022/09/26 03:51:27;;;;;;;9.08;6.53;;;;;;;11.20;89.97;99949.92;1618461;86;21139;-64
2022/09/26 03:53:57;;;;;;;9.93;6.72;;;;;;;11.16;90.13;99948.66;1653638;85;21099;-64
2022/09/26 03:56:28;;;;;;;9.98;6.80;;;;;;;11.15;90.36;99947.81;1639972;86;21171;-64
2022/09/26 03:58:58;;;;;;;11.08;6.70;;;;;;;11.16;90.43;99950.88;1662143;85;21036;-64
2022/09/26 04:01:27;;;;;;;10.82;6.90;;;;;;;11.21;90.39;99942.00;1652355;85;21116;-63
2022/09/26 04:03:57;;;;;;;7.97;6.10;;;;;;;11.21;90.27;99943.38;1673345;85;21000;-63
2022/09/26 04:06:26;;;;;;;10.20;6.55;;;;;;;11.16;90.32;99948.66;1653726;85;21492;-63
2022/09/26 04:08:55;;;;;;;10.43;6.78;;;;;;;11.13;90.44;99949.08;1650334;86;21056;-64
2022/09/26 04:11:24;;;;;;;10.25;7.28;;;;;;;11.12;90.67;99952.35;1653453;85;21111;-65
2022/09/26 04:13:53;;;;;;;11.73;7.40;;;;;;;11.13;90.91;99944.97;1653260;85;21051;-64
2022/09/26 04:16:25;;;;;;;12.07;7.20;;;;;;;11.14;91.06;99942.55;1675875;85;21107;-66
2022/09/26 04:18:57;;;;;;;10.72;6.72;;;;;;;11.16;91.24;99941.80;1670284;85;21009;-64
2022/09/26 04:21:28;;;;;;;10.35;7.37;;;;;;;11.16;91.35;99938.53;1681241;85;21591;-65
2022/09/26 04:23:59;;;;;;;10.98;6.92;;;;;;;11.16;91.57;99936.31;1655891;86;21067;-64
2022/09/26 04:26:29;;;;;;;11.30;7.20;;;;;;;11.18;91.80;99930.94;1669567;84;21048;-64
2022/09/26 04:29:00;;;;;;;9.60;6.50;;;;;;;11.20;91.99;99936.20;1662483;86;21055;-64
2022/09/26 04:31:34;;;;;;;10.55;7.00;;;;;;;11.22;92.16;99934.09;1658732;85;21065;-64
2022/09/26 04:34:04;;;;;;;12.40;7.40;;;;;;;11.23;92.35;99927.02;1652083;85;21059;-64
2022/09/26 04:36:32;;;;;;;10.68;7.60;;;;;;;11.23;92.47;99929.77;1671103;85;21088;-63
2022/09/26 04:39:03;;;;;;;13.45;7.72;;;;;;;11.21;92.64;99934.63;1662474;86;21051;-65
2022/09/26 04:41:32;;;;;;;13.93;7.87;;;;;;;11.23;92.85;99933.04;1644531;85;21060;-64
2022/09/26 04:44:01;;;;;;;12.23;7.50;;;;;;;11.24;92.89;99930.61;1636044;86;21099;-64
2022/09/26 04:46:31;;;;;;;12.60;7.85;;;;;;;11.22;93.00;99923.13;1652771;86;21079;-63
2022/09/26 04:49:01;;;;;;;14.30;8.80;;;;;;;11.22;93.20;99928.08;1656493;85;21059;-65
2022/09/26 04:51:31;;;;;;;17.45;8.93;;;;;;;11.21;93.38;99927.77;1660129;85;21349;-63
2022/09/26 04:54:01;;;;;;;12.70;8.40;;;;;;;11.21;93.60;99921.44;1726692;82;21064;-64
2022/09/26 04:56:33;;;;;;;13.90;7.85;;;;;;;11.21;93.79;99929.14;1718135;82;21040;-65
2022/09/26 04:59:02;;;;;;;13.83;7.75;;;;;;;11.24;94.00;99917.73;1678010;84;21103;-64
2022/09/26 05:01:34;;;;;;;11.93;7.22;;;;;;;11.27;94.02;99915.09;1716188;82;21503;-64
2022/09/26 05:04:06;;;;;;;10.90;7.60;;;;;;;11.29;93.92;99926.70;1694892;84;21036;-64
2022/09/26 05:06:35;;;;;;;11.55;7.42;;;;;;;11.31;93.78;99925.42;1699875;82;21075;-65
2022/09/26 05:09:05;;;;;;;19.05;7.90;;;;;;;11.34;93.60;99924.16;1647430;85;21011;-65
2022/09/26 05:11:39;;;;;;;11.90;7.87;;;;;;;11.36;93.40;99933.85;1687389;82;21036;-64
2022/09/26 05:14:10;;;;;;;13.15;7.65;;;;;;;11.37;93.34;99934.70;1725025;82;21032;-64
2022/09/26 05:16:39;;;;;;;11.15;7.15;;;;;;;11.36;93.25;99939.34;1718745;82;21067;-67
2022/09/26 05:19:11;;;;;;;10.75;7.20;;;;;;;11.36;93.17;99946.20;1668520;84;21017;-65
2022/09/26 05:21:44;;;;;;;10.70;6.90;;;;;;;11.39;92.84;99938.91;1720660;82;21095;-64
2022/09/26 05:27:07;;;;;;;12.47;8.48;;;;;;;11.41;92.33;99934.05;1718050;82;21020;-65
2022/09/26 05:29:36;;;;;;;13.78;7.62;;;;;;;11.41;92.10;99916.75;1686231;84;21060;-64
2022/09/26 05:32:07;;;;;;;11.68;7.50;;;;;;;11.40;91.92;99928.25;1739205;82;21074;-65
2022/09/26 05:34:38;;;;;;;13.30;7.58;;;;;;;11.39;91.76;99922.45;1716093;82;21040;-66
2022/09/26 05:37:08;;;;;;;13.15;7.47;;;;;;;11.38;91.52;99926.78;1731887;82;21032;-65
2022/09/26 05:42:25;;;;;;;13.20;7.40;;;;;;;11.39;91.19;99924.36;1731161;82;21110;-65
2022/09/26 05:44:55;;;;;;;11.20;7.03;;;;;;;11.38;91.02;99912.54;1726104;82;21051;-66
2022/09/26 05:47:25;;;;;;;12.70;7.12;;;;;;;11.39;90.81;99925.73;1676442;84;21036;-67
2022/09/26 05:49:54;;;;;;;11.93;6.60;;;;;;;11.40;90.69;99917.81;1715911;82;21028;-67
2022/09/26 05:52:24;;;;;;;12.47;7.60;;;;;;;11.40;90.57;99921.92;1687101;84;21078;-67
2022/09/26 05:54:54;;;;;;;11.63;7.83;;;;;;;11.41;90.45;99908.52;1646805;86;21534;-65
2022/09/26 05:57:26;;;;;;;12.35;7.70;;;;;;;11.42;90.44;99901.98;1620222;88;21119;-64
2022/09/26 05:59:57;;;;;;;13.28;8.23;;;;;;;11.44;90.41;99909.47;1607645;88;21064;-66
2022/09/26 06:02:26;;;;;;;13.80;8.20;;;;;;;11.44;90.55;99910.83;1681840;85;21607;-66
2022/09/26 06:05:11;;;;;;;14.15;8.33;;;;;;;11.47;90.78;99913.67;1614593;87;21123;-64
2022/09/26 06:07:44;;;;;;;15.50;8.80;;;;;;;11.51;90.86;99910.28;1583979;90;21093;-65
2022/09/26 06:10:16;;;;;;;12.65;8.13;;;;;;;11.54;90.96;99901.63;1578892;90;21107;-65
2022/09/26 06:12:47;;;;;;;15.25;8.40;;;;;;;11.57;91.04;99905.84;1586334;90;21150;-65
2022/09/26 06:15:18;;;;;;;12.25;8.00;;;;;;;11.59;90.97;99903.19;1589850;90;21197;-66
2022/09/26 06:17:51;;;;;;;12.82;7.65;;;;;;;11.61;90.78;99910.67;1584077;88;21179;-66
2022/09/26 06:20:24;;;;;;;11.83;7.95;;;;;;;11.60;90.56;99906.77;1529763;91;21087;-67
2022/09/26 06:22:54;;;;;;;15.13;8.13;;;;;;;11.59;90.31;99915.53;1623676;87;21124;-66
2022/09/26 06:25:23;;;;;;;16.25;8.35;;;;;;;11.60;90.23;99917.22;1620603;87;21079;-67
2022/09/26 06:27:56;;;;;;;13.08;7.92;;;;;;;11.62;89.99;99923.86;1670396;85;21057;-67
2022/09/26 06:30:28;;;;;;;13.45;8.60;;;;;;;11.63;89.96;99920.06;1670663;85;21052;-65
2022/09/26 06:33:00;;;;;;;14.18;8.68;;;;;;;11.63;89.72;99935.16;1680847;83;21114;-66
2022/09/26 06:35:38;;;;;;;13.62;8.65;;;;;;;11.62;89.78;99941.17;1665798;85;21451;-66
2022/09/26 06:38:12;;;;;;;18.55;9.30;;;;;;;11.65;89.90;99937.16;1683726;85;21055;-65
2022/09/26 06:40:44;;;;;;;15.45;9.10;;;;;;;11.66;90.03;99929.23;1683740;85;21058;-65
2022/09/26 06:43:14;;;;;;;13.68;8.23;;;;;;;11.62;90.22;99930.73;1672690;85;21031;-65
2022/09/26 06:45:48;;;;;;;15.58;8.45;;;;;;;11.59;90.46;99926.52;1673037;84;21099;-66
2022/09/26 06:48:21;;;;;;;16.12;7.80;;;;;;;11.57;90.48;99919.03;1670182;84;21066;-66
2022/09/26 06:51:04;;;;;;;15.25;7.85;;;;;;;11.57;90.42;99914.91;1688386;82;21052;-67
2022/09/26 06:53:38;;;;;;;17.07;8.33;;;;;;;11.58;90.28;99916.59;1729491;82;21024;-68
2022/09/26 06:56:10;;;;;;;18.20;9.35;;;;;;;11.59;90.18;99927.88;1732574;82;21028;-67
2022/09/26 06:58:39;;;;;;;16.30;9.33;;;;;;;11.59;90.28;99936.64;1739045;82;21086;-66
2022/09/26 07:01:10;;;;;;;15.50;9.20;;;;;;;11.59;90.50;99940.76;1713898;82;21507;-67
2022/09/26 07:03:45;;;;;;;15.45;9.10;;;;;;;11.58;90.68;99942.66;1738732;82;21075;-67
2022/09/26 07:06:26;;;;;;;14.47;8.60;;;;;;;11.60;90.97;99944.66;1710170;82;21032;-66
2022/09/26 07:08:56;;;;;;;17.32;9.00;;;;;;;11.62;91.19;99945.81;1712407;82;21035;-66
2022/09/26 07:11:30;;;;;;;12.15;7.72;;;;;;;11.63;91.22;99941.48;1696904;84;21064;-66
2022/09/26 07:14:02;;;;;;;14.38;8.38;;;;;;;11.65;91.18;99947.60;1695657;82;21044;-65
2022/09/26 07:16:33;;;;;;;12.13;8.20;;;;;;;11.66;90.89;99942.42;1703594;82;21012;-66
2022/09/26 07:19:21;;;;;;;13.80;7.28;;;;;;;11.69;90.70;99941.99;1708287;82;21020;-67
2022/09/26 07:22:05;;;;;;;15.25;7.87;;;;;;;11.74;90.19;99936.73;1732141;82;21512;-65
2022/09/26 07:24:48;;;;;;;11.85;6.97;;;;;;;11.73;89.60;99936.41;1707279;82;21498;-65
2022/09/26 07:27:18;;;;;;;15.55;8.20;;;;;;;11.75;89.21;99926.59;1723005;82;21593;-66
2022/09/26 07:29:48;;;;;;;16.05;8.73;;;;;;;11.75;88.72;99928.80;1708884;82;21048;-66
2022/09/26 07:32:20;;;;;;;12.23;7.35;;;;;;;11.77;88.63;99925.00;1659713;85;21091;-66
2022/09/26 07:34:54;;;;;;;12.33;8.73;;;;;;;11.81;88.46;99921.64;1649824;85;21032;-66
2022/09/26 07:37:24;;;;;;;12.18;7.80;;;;;;;11.84;88.16;99923.11;1712002;82;21047;-68
2022/09/26 07:39:56;;;;;;;14.05;8.75;;;;;;;11.85;87.93;99923.42;1706869;82;21036;-66
2022/09/26 07:42:28;;;;;;;14.90;9.15;;;;;;;11.88;87.81;99914.75;1738841;82;21784;-68
2022/09/26 07:44:57;;;;;;;14.83;8.18;;;;;;;11.92;87.72;99917.37;1718877;82;21484;-69
2022/09/26 07:50:40;;;;;;;14.00;8.43;;;;;;;11.98;87.57;99905.52;1687372;82;21044;-69
2022/09/26 07:53:15;;;;;;;13.95;9.08;;;;;;;12.03;87.33;99901.58;1720728;83;21111;-67
2022/09/26 07:56:09;;;;;;;15.32;9.73;;;;;;;12.07;87.29;99901.45;1675891;84;21083;-69
2022/09/26 07:59:04;;;;;;;13.25;8.15;;;;;;;12.11;87.20;99901.32;1664319;86;21616;-68
2022/09/26 08:01:37;;;;;;;14.15;7.87;;;;;;;12.13;86.87;99902.47;1683727;85;21083;-68
2022/09/26 08:04:17;;;;;;;12.37;7.55;;;;;;;12.16;86.61;99898.75;1661313;84;21008;-67
2022/09/26 08:06:47;;;;;;;13.15;9.08;;;;;;;12.19;86.18;99891.45;1678977;85;21084;-68
2022/09/26 08:09:17;;;;;;;14.28;8.45;;;;;;;12.21;85.85;99890.70;1644327;86;21130;-68
2022/09/26 08:12:05;;;;;;;11.53;7.78;;;;;;;12.25;85.97;99891.09;1670358;84;21133;-66
2022/09/26 08:14:38;;;;;;;13.00;8.05;;;;;;;12.29;85.59;99897.30;1682942;85;21033;-67
2022/09/26 08:17:21;;;;;;;13.15;8.55;;;;;;;12.34;85.55;99894.73;1679937;84;21445;-69
2022/09/26 08:19:51;;;;;;;14.38;9.20;;;;;;;12.43;85.33;99897.23;1659482;86;21105;-67
2022/09/26 08:22:23;;;;;;;14.13;8.15;;;;;;;12.48;85.05;99889.17;1669969;84;21075;-67
2022/09/26 08:24:54;;;;;;;13.13;7.78;;;;;;;12.49;84.68;99889.48;1664641;84;21098;-67
2022/09/26 08:27:25;;;;;;;12.98;8.00;;;;;;;12.50;84.23;99889.26;1670056;86;21044;-66
2022/09/26 08:29:55;;;;;;;10.48;7.70;;;;;;;12.53;83.95;99887.97;1672064;85;22111;-68
2022/09/26 08:32:26;;;;;;;12.05;7.67;;;;;;;12.56;83.77;99886.99;1671054;84;21074;-66
2022/09/26 08:34:54;;;;;;;14.30;7.60;;;;;;;12.61;83.52;99886.33;1674183;85;21068;-66
2022/09/26 08:37:30;;;;;;;12.85;7.50;;;;;;;12.62;83.08;99882.51;1647085;85;21071;-69
2022/09/26 08:40:18;;;;;;;11.00;7.03;;;;;;;12.62;82.75;99875.10;1671426;86;21075;-67
2022/09/26 08:43:17;;;;;;;11.48;7.55;;;;;;;12.66;82.74;99880.46;1672717;85;21111;-70
2022/09/26 08:46:49;;;;;;;11.97;7.37;;;;;;;12.68;82.50;99885.20;1603446;87;21476;-67
2022/09/26 08:49:49;;;;;;;15.43;8.93;;;;;;;12.73;82.89;99884.53;1645812;85;21051;-68
2022/09/26 08:52:39;;;;;;;12.18;7.37;;;;;;;12.80;82.95;99884.47;1666192;83;21044;-69
2022/09/26 08:55:19;;;;;;;10.93;7.00;;;;;;;12.88;82.90;99888.31;1631455;86;21095;-70
2022/09/26 08:57:59;;;;;;;13.22;7.20;;;;;;;12.94;82.46;99884.66;1631280;86;21075;-68
2022/09/26 09:00:33;;;;;;;13.13;7.60;;;;;;;12.99;82.17;99882.91;1598207;87;21092;-68
2022/09/26 09:03:29;;;;;;;12.55;7.20;;;;;;;13.06;82.15;99884.26;1631402;87;21287;-69
2022/09/26 09:06:06;;;;;;;14.78;7.47;;;;;;;13.12;81.97;99878.38;1660318;86;21055;-67
2022/09/26 09:08:45;;;;;;;11.15;7.72;;;;;;;13.20;81.39;99876.20;1662373;86;21132;-69
2022/09/26 09:11:32;;;;;;;;;;;;;;;13.28;80.92;99881.95;1654266;86;21040;-68
2022/09/26 09:14:31;;;;;;;10.32;6.67;;;;;;;13.37;80.56;99871.48;1650899;86;20211;-70
2022/09/26 09:17:33;;;;;;;14.40;7.22;;;;;;;13.40;79.59;99877.91;1658388;86;21095;-65
2022/09/26 09:20:32;;;;;;;10.68;7.10;;;;;;;13.41;79.25;99870.80;1658063;85;21067;-68
2022/09/26 09:23:20;;;;;;;13.28;6.65;;;;;;;13.51;79.37;99879.89;1626651;87;21088;-68
2022/09/26 09:26:12;;;;;;;;;;;;;;;13.59;79.02;99873.54;1612350;86;21120;-67
2022/09/26 09:28:57;;;;;;;14.93;9.03;;;;;;;13.66;78.64;99880.38;1608598;88;20555;-67
2022/09/26 09:31:29;;;;;;;11.68;7.60;;;;;;;13.72;78.21;99879.98;1628598;88;21143;-66
2022/09/26 09:34:03;;;;;;;10.63;7.25;;;;;;;13.76;78.02;99877.08;1626167;86;21064;-66
2022/09/26 09:37:00;;;;;;;13.65;7.65;;;;;;;13.84;77.98;99889.15;1654091;86;21003;-66
2022/09/26 09:39:37;;;;;;;13.15;7.75;;;;;;;13.90;77.50;99879.42;1635075;87;21123;-66
2022/09/26 09:42:34;;;;;;;15.75;9.08;;;;;;;13.96;77.24;99881.78;1631215;88;21987;-68
2022/09/26 09:45:07;;;;;;;14.05;9.18;;;;;;;14.03;76.90;99885.29;1630932;88;21103;-68
2022/09/26 09:47:38;;;;;;;15.10;9.35;;;;;;;14.09;76.45;99880.76;1630795;86;21560;-67
2022/09/26 09:50:19;;;;;;;12.85;8.73;;;;;;;14.15;75.88;99881.20;1630827;86;21160;-67
2022/09/26 09:53:05;;;;;;;9.60;6.70;;;;;;;14.22;75.57;99877.28;1663056;86;21028;-68
2022/09/26 09:55:48;;;;;;;11.48;6.67;;;;;;;14.32;75.46;99880.03;1660380;84;21081;-68
2022/09/26 09:58:53;;;;;;;12.43;6.47;;;;;;;14.44;74.57;99871.30;1675647;84;21091;-67
2022/09/26 10:01:42;;;;;;;9.38;6.12;;;;;;;14.56;73.99;99873.54;1630221;87;21131;-67
2022/09/26 10:04:34;;;;;;;9.10;5.92;;;;;;;14.69;72.41;99865.05;1662084;86;21063;-66
2022/09/26 10:07:04;;;;;;;11.73;6.08;;;;;;;14.81;71.57;99869.20;1637887;87;21020;-66
2022/09/26 10:09:42;;;;;;;9.90;6.00;;;;;;;14.93;70.83;99860.93;1637710;86;21072;-65
2022/09/26 10:12:33;;;;;;;10.23;5.78;;;;;;;15.05;70.25;99861.80;1645008;87;21550;-67
2022/09/26 10:15:25;;;;;;;8.68;6.30;;;;;;;15.17;69.46;99849.67;1658178;86;21060;-66
2022/09/26 10:18:20;;;;;;;11.90;6.95;;;;;;;15.27;69.48;99841.33;1645312;87;21008;-67
2022/09/26 10:20:58;;;;;;;8.43;6.00;;;;;;;15.38;68.88;99831.65;1668732;85;21055;-67
2022/09/26 10:23:40;;;;;;;9.00;5.95;;;;;;;15.47;68.06;99819.14;1631215;87;21151;-66
2022/09/26 10:26:12;;;;;;;9.68;6.80;;;;;;;15.51;66.93;99820.88;1621820;88;21128;-67
2022/09/26 10:28:55;;;;;;;12.78;6.70;;;;;;;15.57;67.42;99823.20;1668524;85;21031;-67
2022/09/26 10:31:30;;;;;;;10.28;6.37;;;;;;;15.64;67.61;99817.89;1629991;87;21119;-67
2022/09/26 10:34:31;;;;;;;10.35;5.92;;;;;;;15.70;67.30;99809.17;1630203;87;21136;-68
2022/09/26 10:37:21;;;;;;;11.48;6.20;;;;;;;15.73;67.30;99798.47;1631286;88;21087;-67
2022/09/26 10:42:42;;;;;;;9.53;6.30;;;;;;;15.78;67.48;99800.49;1662835;86;21016;-68
2022/09/26 10:45:26;;;;;;;11.45;6.70;;;;;;;15.79;66.86;99797.48;1646980;86;21051;-67
2022/09/26 10:48:02;;;;;;;10.48;6.60;;;;;;;15.81;67.05;99798.08;1654874;85;21069;-67
2022/09/26 10:50:34;;;;;;;15.98;6.47;;;;;;;15.85;67.15;99795.66;1617102;86;21562;-68
2022/09/26 10:53:24;;;;;;;10.95;5.22;;;;;;;15.87;66.90;99792.65;1603439;86;21079;-67
2022/09/26 10:55:56;;;;;;;9.63;5.87;;;;;;;15.91;66.93;99787.77;1624191;88;21048;-67
2022/09/26 10:58:28;;;;;;;13.62;6.50;;;;;;;15.96;66.88;99787.86;1620724;87;21496;-66
2022/09/26 11:00:59;;;;;;;8.90;5.70;;;;;;;15.99;66.40;99784.59;1620989;88;21086;-66
2022/09/26 11:03:44;;;;;;;9.65;5.92;;;;;;;16.00;66.53;99777.14;1621498;87;21518;-66
2022/09/26 11:06:33;;;;;;;10.82;6.45;;;;;;;16.01;66.90;99774.14;1610808;88;21028;-66
2022/09/26 11:09:14;;;;;;;9.43;5.62;;;;;;;16.07;66.31;99769.00;1620714;87;21143;-66
2022/09/26 11:11:49;;;;;;;8.08;6.12;;;;;;;16.16;66.46;99768.88;1522162;88;21105;-68
2022/09/26 11:14:31;;;;;;;8.65;6.20;;;;;;;16.23;65.82;99767.88;1621368;88;21112;-66
2022/09/26 11:17:06;;;;;;;7.70;5.70;;;;;;;16.31;66.09;99764.19;1613874;87;21057;-68
2022/09/26 11:19:50;;;;;;;10.25;5.65;;;;;;;16.39;66.14;99761.00;1621587;87;21072;-67
2022/09/26 11:22:33;;;;;;;7.65;5.65;;;;;;;16.44;66.17;99763.02;1620871;88;21182;-67
2022/09/26 11:25:18;;;;;;;11.78;5.78;;;;;;;16.47;66.35;99760.58;1626813;87;21102;-67
2022/09/26 11:28:06;;;;;;;11.53;6.95;;;;;;;16.48;66.23;99755.34;1621586;87;21080;-65
2022/09/26 11:30:37;;;;;;;11.45;6.30;;;;;;;16.52;66.44;99741.85;1609024;88;21140;-69
2022/09/26 11:33:11;;;;;;;10.48;6.58;;;;;;;16.57;66.93;99748.01;1613218;88;21040;-65
2022/09/26 11:36:30;;;;;;;10.82;6.87;;;;;;;16.61;66.92;99744.48;1601161;89;21193;-67
2022/09/26 11:39:32;;;;;;;9.48;5.67;;;;;;;16.69;66.57;99747.39;1596057;90;21077;-65
2022/09/26 11:42:16;;;;;;;8.63;4.85;;;;;;;16.77;66.54;99753.33;1607135;89;21047;-66
2022/09/26 11:44:58;;;;;;;8.48;5.10;;;;;;;16.84;65.93;99747.62;1623148;87;21045;-66
2022/09/26 11:48:11;;;;;;;9.48;4.92;;;;;;;16.91;64.56;99749.69;1578180;91;21088;-67
2022/09/26 11:51:11;;;;;;;8.80;5.25;;;;;;;17.02;63.91;99754.27;1811069;77;22160;-66
2022/09/26 11:54:02;;;;;;;12.80;6.00;;;;;;;17.02;63.22;99760.36;1746695;80;21090;-66
2022/09/26 11:56:43;;;;;;;9.18;4.22;;;;;;;17.07;63.40;99759.05;1757551;80;21150;-67
2022/09/26 11:59:57;;;;;;;5.78;3.75;;;;;;;17.10;62.13;99752.45;1711317;82;21090;-66
2022/09/26 12:02:46;;;;;;;5.40;3.27;;;;;;;17.15;61.45;99758.59;1722241;82;21168;-64
2022/09/26 12:05:54;;;;;;;6.30;3.27;;;;;;;17.17;61.34;99756.41;1710331;83;21591;-67
2022/09/26 12:08:37;;;;;;;6.70;3.40;;;;;;;17.19;60.82;99760.30;1719669;83;21533;-67
2022/09/26 12:11:38;;;;;;;8.35;3.70;;;;;;;17.20;60.12;99755.06;1732250;82;21158;-66
2022/09/26 12:14:21;;;;;;;8.98;3.72;;;;;;;17.20;59.87;99754.52;1716990;83;21147;-67
2022/09/26 12:16:58;;;;;;;5.33;3.05;;;;;;;17.21;60.12;99753.96;1727168;82;21158;-66
2022/09/26 12:19:31;;;;;;;;;;;;;;;17.21;59.90;99753.41;1732061;82;21111;-67
2022/09/26 12:22:43;;;;;;;6.35;3.58;;;;;;;17.21;58.99;99754.80;1735925;82;20470;-68
2022/09/26 12:25:06;;;;;;;6.58;4.37;;;;;;;17.18;59.10;99752.55;1713030;82;21548;-66
2022/09/26 12:28:07;;;;;;;8.53;5.00;;;;;;;17.17;58.66;99755.57;1714492;82;21771;-65